createdAt,value
2022-09-27T00:04:13.150Z,41.90
2022-09-27T00:09:33.372Z,41.90
2022-09-27T00:14:53.386Z,41.80
2022-09-27T00:20:13.683Z,41.90
2022-09-27T00:25:33.864Z,41.80
2022-09-27T00:30:54.166Z,41.90
2022-09-27T00:36:14.203Z,41.80
2022-09-27T00:41:34.451Z,41.90
2022-09-27T00:46:54.476Z,42.00
2022-09-27T00:52:15.487Z,41.90
2022-09-27T00:57:35.613Z,41.90
2022-09-27T01:02:55.847Z,41.80
2022-09-27T01:08:15.766Z,41.80
2022-09-27T01:13:36.050Z,41.90
2022-09-27T01:18:56.079Z,41.80
2022-09-27T01:24:16.423Z,41.80
2022-09-27T01:29:36.498Z,41.80
2022-09-27T01:34:56.692Z,41.80
2022-09-27T01:40:16.833Z,41.80
2022-09-27T01:45:37.029Z,41.80
2022-09-27T01:50:57.227Z,41.80
2022-09-27T01:56:17.280Z,41.80
2022-09-27T02:01:37.545Z,41.80
2022-09-27T02:06:57.511Z,41.90
2022-09-27T02:12:17.728Z,41.80
2022-09-27T02:17:37.799Z,41.80
2022-09-27T02:22:58.292Z,41.80
2022-09-27T02:28:18.384Z,41.80
2022-09-27T02:33:38.539Z,41.80
2022-09-27T02:38:58.554Z,41.80
2022-09-27T02:44:18.715Z,41.80
2022-09-27T02:49:38.780Z,41.80
2022-09-27T02:54:59.007Z,41.80
2022-09-27T03:00:19.149Z,41.80
2022-09-27T03:05:39.264Z,41.80
2022-09-27T03:10:59.313Z,41.80
2022-09-27T03:16:19.655Z,41.80
2022-09-27T03:21:39.780Z,41.80
2022-09-27T03:26:59.954Z,41.80
2022-09-27T03:32:23.038Z,41.80
2022-09-27T03:37:43.255Z,41.70
2022-09-27T03:43:03.480Z,41.70
2022-09-27T03:48:27.963Z,41.70
2022-09-27T03:53:48.446Z,41.70
2022-09-27T03:59:08.559Z,41.60
2022-09-27T04:04:28.665Z,41.70
2022-09-27T04:09:48.705Z,41.60
2022-09-27T04:15:08.752Z,41.70
2022-09-27T04:20:28.873Z,41.80
2022-09-27T04:25:49.054Z,41.60
2022-09-27T04:31:09.340Z,41.60
2022-09-27T04:36:29.398Z,41.80
2022-09-27T04:41:49.483Z,41.70
2022-09-27T04:47:09.734Z,41.70
2022-09-27T04:52:29.847Z,41.70
2022-09-27T04:57:50.580Z,41.80
2022-09-27T05:03:10.675Z,41.70
2022-09-27T05:08:30.854Z,41.70
2022-09-27T05:13:50.884Z,41.80
2022-09-27T05:19:11.215Z,41.70
2022-09-27T05:24:31.185Z,41.70
2022-09-27T05:29:51.278Z,41.70
2022-09-27T05:35:11.368Z,41.70
2022-09-27T05:40:47.091Z,41.70
2022-09-27T05:46:07.281Z,41.70
2022-09-27T05:51:27.496Z,41.80
2022-09-27T05:56:47.539Z,41.70
2022-09-27T06:02:07.779Z,41.70
2022-09-27T06:07:27.744Z,41.70
2022-09-27T06:12:48.024Z,41.70
2022-09-27T06:18:08.227Z,41.70
2022-09-27T06:23:28.397Z,41.70
2022-09-27T06:28:48.535Z,41.80
2022-09-27T06:34:08.704Z,41.70
2022-09-27T06:39:28.737Z,41.70
2022-09-27T06:44:50.221Z,41.70
2022-09-27T06:50:10.587Z,41.70
2022-09-27T06:55:30.707Z,41.70
2022-09-27T07:00:50.815Z,41.70
2022-09-27T07:06:11.007Z,41.70
2022-09-27T07:11:31.070Z,41.70
2022-09-27T07:16:51.371Z,41.70
2022-09-27T07:22:11.483Z,41.70
2022-09-27T07:27:31.654Z,41.70
2022-09-27T07:32:51.771Z,41.70
2022-09-27T07:38:12.002Z,41.70
2022-09-27T07:43:32.181Z,41.70
2022-09-27T07:48:52.628Z,41.70
2022-09-27T07:54:12.629Z,41.70
2022-09-27T07:59:32.743Z,41.70
2022-09-27T08:04:52.879Z,41.70
2022-09-27T08:10:13.106Z,41.70
2022-09-27T08:15:33.268Z,41.70
2022-09-27T08:20:53.407Z,41.70
2022-09-27T08:26:13.664Z,41.70
2022-09-27T08:31:33.866Z,41.70
2022-09-27T08:36:53.935Z,41.70
2022-09-27T08:42:14.080Z,41.70
2022-09-27T08:47:34.239Z,41.70
2022-09-27T08:52:54.280Z,41.60
2022-09-27T08:58:14.459Z,41.70
2022-09-27T09:03:34.487Z,41.70
2022-09-27T09:08:54.574Z,41.70
2022-09-27T09:14:14.908Z,41.60
2022-09-27T09:19:34.764Z,41.70
2022-09-27T09:24:54.905Z,41.70
2022-09-27T09:30:15.001Z,41.60
2022-09-27T09:35:35.023Z,41.70
2022-09-27T09:40:55.153Z,41.70
2022-09-27T09:46:15.319Z,41.70
2022-09-27T09:51:35.340Z,41.70
2022-09-27T09:56:55.473Z,41.70
2022-09-27T10:02:15.857Z,41.70
2022-09-27T10:07:35.875Z,41.70
2022-09-27T10:12:56.131Z,41.70
2022-09-27T10:18:16.151Z,41.60
2022-09-27T10:23:36.419Z,41.60
2022-09-27T10:28:56.510Z,41.60
2022-09-27T10:34:16.870Z,41.60
2022-09-27T10:39:36.747Z,41.60
2022-09-27T10:44:57.044Z,41.60
2022-09-27T10:50:38.916Z,41.50
2022-09-27T10:55:57.610Z,42.10
2022-09-27T11:01:17.911Z,41.50
2022-09-27T11:06:38.376Z,41.60
2022-09-27T11:11:58.578Z,41.60
2022-09-27T11:17:18.701Z,41.60
2022-09-27T11:22:38.791Z,41.60
2022-09-27T11:27:58.928Z,41.60
2022-09-27T11:33:19.044Z,41.60
2022-09-27T11:38:52.889Z,41.60
2022-09-27T11:44:14.997Z,41.60
2022-09-27T11:49:35.288Z,41.60
2022-09-27T11:54:55.380Z,41.60
2022-09-27T12:00:15.476Z,41.60
2022-09-27T12:05:35.652Z,41.60
2022-09-27T12:10:56.009Z,41.50
2022-09-27T12:16:16.049Z,41.50
2022-09-27T12:21:36.047Z,41.50
2022-09-27T12:26:56.151Z,41.50
2022-09-27T12:32:16.328Z,41.50
2022-09-27T12:37:36.390Z,41.60
2022-09-27T12:42:56.489Z,41.50
2022-09-27T12:48:16.698Z,41.60
2022-09-27T12:53:36.967Z,41.60
2022-09-27T12:58:57.047Z,41.60
2022-09-27T13:04:17.224Z,41.50
2022-09-27T13:09:37.344Z,41.50
2022-09-27T13:14:57.544Z,41.50
2022-09-27T13:20:17.662Z,41.50
2022-09-27T13:25:39.409Z,41.50
2022-09-27T13:30:59.627Z,41.50
2022-09-27T13:36:19.646Z,41.60
2022-09-27T13:41:39.801Z,41.60
2022-09-27T13:46:59.992Z,41.60
2022-09-27T13:52:20.157Z,41.60
2022-09-27T13:57:40.293Z,41.50
2022-09-27T14:03:00.259Z,41.50
2022-09-27T14:08:21.071Z,41.40
2022-09-27T14:13:41.164Z,41.50
2022-09-27T14:19:02.058Z,41.40
2022-09-27T14:24:22.223Z,41.50
2022-09-27T14:29:42.310Z,41.50
2022-09-27T14:35:02.295Z,41.50
2022-09-27T14:40:22.601Z,41.50
2022-09-27T14:45:43.076Z,41.50
2022-09-27T14:51:05.713Z,41.50
2022-09-27T14:56:26.692Z,41.40
2022-09-27T15:01:46.914Z,41.60
2022-09-27T15:07:07.064Z,41.60
2022-09-27T15:12:27.181Z,41.60
2022-09-27T15:17:47.298Z,41.50
2022-09-27T15:23:07.710Z,41.60
2022-09-27T15:28:27.857Z,41.60
2022-09-27T15:33:51.400Z,41.50
2022-09-27T15:39:11.909Z,41.50
2022-09-27T15:44:35.397Z,41.50
2022-09-27T15:49:56.220Z,41.50
2022-09-27T15:55:16.238Z,41.50
2022-09-27T16:00:36.677Z,41.50
2022-09-27T16:05:56.671Z,41.50
2022-09-27T16:11:16.877Z,41.50
2022-09-27T16:16:37.019Z,41.40
2022-09-27T16:21:57.194Z,41.50
2022-09-27T16:27:17.189Z,41.50
2022-09-27T16:32:37.392Z,41.50
2022-09-27T16:37:57.491Z,41.40
2022-09-27T16:43:17.702Z,41.40
2022-09-27T16:48:37.877Z,41.40
2022-09-27T16:53:58.047Z,41.40
2022-09-27T16:59:18.148Z,41.40
2022-09-27T17:04:38.278Z,41.40
2022-09-27T17:09:58.197Z,41.40
2022-09-27T17:15:18.574Z,41.40
2022-09-27T17:20:38.729Z,41.40
2022-09-27T17:25:58.750Z,41.40
2022-09-27T17:31:18.858Z,41.40
2022-09-27T17:36:38.856Z,41.50
2022-09-27T17:41:58.988Z,41.40
2022-09-27T17:47:19.268Z,41.50
2022-09-27T17:52:39.617Z,41.40
2022-09-27T17:57:59.755Z,41.40
2022-09-27T18:03:19.963Z,41.40
2022-09-27T18:08:40.173Z,41.40
2022-09-27T18:14:00.314Z,41.40
2022-09-27T18:19:20.562Z,41.40
2022-09-27T18:24:40.678Z,41.40
2022-09-27T18:30:00.893Z,41.40
2022-09-27T18:35:21.039Z,41.40
2022-09-27T18:40:55.581Z,41.40
2022-09-27T18:46:35.117Z,41.40
2022-09-27T18:51:56.269Z,41.40
2022-09-27T18:57:16.365Z,41.40
2022-09-27T19:02:36.475Z,41.40
2022-09-27T19:07:56.711Z,41.40
2022-09-27T19:13:16.875Z,41.40
2022-09-27T19:18:36.981Z,41.40
2022-09-27T19:23:57.156Z,41.40
2022-09-27T19:29:17.347Z,41.40
2022-09-27T19:34:37.342Z,41.40
2022-09-27T19:39:57.632Z,41.40
2022-09-27T19:45:17.911Z,41.40
2022-09-27T19:50:37.982Z,41.40
2022-09-27T19:55:58.084Z,41.40
2022-09-27T20:01:18.136Z,41.40
2022-09-27T20:06:38.325Z,41.40
2022-09-27T20:11:58.418Z,41.40
2022-09-27T20:17:18.506Z,41.40
2022-09-27T20:22:38.640Z,41.40
2022-09-27T20:27:58.905Z,41.40
2022-09-27T20:33:19.002Z,41.40
2022-09-27T20:38:39.193Z,41.30
2022-09-27T20:43:59.200Z,41.30
2022-09-27T20:49:19.320Z,41.30
2022-09-27T20:54:39.394Z,41.30
2022-09-27T20:59:59.597Z,41.30
2022-09-27T21:05:19.639Z,41.30
2022-09-27T21:10:39.889Z,41.30
2022-09-27T21:16:00.235Z,41.30
2022-09-27T21:21:20.320Z,41.40
2022-09-27T21:26:40.436Z,41.50
2022-09-27T21:32:00.703Z,41.40
2022-09-27T21:37:20.654Z,41.40
2022-09-27T21:42:41.330Z,41.40
2022-09-27T21:48:01.598Z,41.40
2022-09-27T21:53:21.747Z,41.40
2022-09-27T21:58:41.936Z,41.30
2022-09-27T22:04:02.208Z,41.30
2022-09-27T22:09:22.227Z,41.40
2022-09-27T22:14:43.512Z,41.30
2022-09-27T22:20:03.484Z,41.40
2022-09-27T22:25:23.639Z,41.30
2022-09-27T22:30:43.786Z,41.40
2022-09-27T22:36:03.812Z,41.40
2022-09-27T22:41:23.984Z,41.40
2022-09-27T22:46:44.404Z,41.40
2022-09-27T22:52:04.399Z,41.40
2022-09-27T22:57:24.654Z,41.30
2022-09-27T23:02:44.803Z,41.30
2022-09-27T23:08:04.922Z,41.40
2022-09-27T23:13:25.043Z,41.30
2022-09-27T23:18:45.171Z,41.30
2022-09-27T23:24:07.290Z,41.30
2022-09-27T23:29:27.443Z,41.40
2022-09-27T23:34:47.568Z,41.30
2022-09-27T23:40:07.736Z,41.30
2022-09-27T23:45:27.790Z,41.40
2022-09-27T23:50:48.216Z,41.30
2022-09-27T23:56:08.253Z,41.30
